Time,TemperatureF,DewpointF,PressureIn,WindDirection,WindDirectionDegrees,WindSpeedMPH,WindSpeedGustMPH,Humidity,HourlyPrecipIn,Conditions,Clouds,dailyrainin,SoftwareType,DateUTC
2013-02-24 00:00:00,74.1,71.3,29.99,SSE,156,0.0,0.0,91,0.00,,---,0.00,VWS V13.01,2013-02-24 05:00:00,
2013-02-24 00:06:00,74.2,71.4,29.99,SSE,156,0.0,0.0,91,0.00,,---,0.00,VWS V13.01,2013-02-24 05:06:00,
2013-02-24 00:07:00,74.2,71.4,29.99,SSE,156,0.0,0.0,91,0.00,,---,0.00,VWS V13.01,2013-02-24 05:07:00,
2013-02-24 00:12:00,74.1,71.3,29.99,SSE,156,0.0,0.0,91,0.00,,---,0.00,VWS V13.01,2013-02-24 05:12:00,
2013-02-24 00:17:00,74.0,71.3,29.99,SE,141,0.0,1.8,91,0.00,,---,0.00,VWS V13.01,2013-02-24 05:17:00,
2013-02-24 00:22:00,73.9,71.3,29.99,SE,141,0.0,0.0,92,0.00,,---,0.00,VWS V13.01,2013-02-24 05:22:00,
2013-02-24 00:27:00,73.8,71.2,29.99,SE,141,0.0,0.0,92,0.00,,---,0.00,VWS V13.01,2013-02-24 05:27:00,
2013-02-24 00:32:00,73.7,71.1,29.98,ESE,108,0.0,0.0,92,0.00,,---,0.00,VWS V13.01,2013-02-24 05:32:00,
2013-02-24 00:37:00,73.6,71.1,29.98,ESE,108,0.0,0.0,92,0.00,,---,0.00,VWS V13.01,2013-02-24 05:37:00,
2013-02-24 00:42:00,73.7,71.3,29.98,SE,131,2.1,2.2,92,0.00,,---,0.00,VWS V13.01,2013-02-24 05:42:00,
2013-02-24 00:47:00,73.5,71.1,29.98,ESE,104,0.7,1.3,92,0.00,,---,0.00,VWS V13.01,2013-02-24 05:47:00,
2013-02-24 00:52:00,73.4,71.1,29.98,ESE,104,0.0,0.0,92,0.00,,---,0.00,VWS V13.01,2013-02-24 05:52:00,
2013-02-24 00:57:00,73.4,71.2,29.99,ESE,121,0.0,2.1,93,0.00,,---,0.00,VWS V13.01,2013-02-24 05:57:00,
2013-02-24 01:02:00,73.3,71.1,29.98,SE,145,0.7,2.4,93,0.00,,---,0.00,VWS V13.01,2013-02-24 06:02:00,
2013-02-24 01:07:00,73.4,71.3,29.98,SE,125,0.0,0.6,93,0.00,,---,0.00,VWS V13.01,2013-02-24 06:07:00,
2013-02-24 01:12:00,73.3,71.2,29.98,SE,142,2.8,4.3,93,0.00,,---,0.00,VWS V13.01,2013-02-24 06:12:00,
2013-02-24 01:17:00,73.3,71.3,29.98,SE,145,4.1,4.6,93,0.00,,---,0.00,VWS V13.01,2013-02-24 06:17:00,
2013-02-24 01:22:00,73.4,71.5,29.98,SE,142,0.0,0.0,94,0.00,,---,0.00,VWS V13.01,2013-02-24 06:22:00,
2013-02-24 01:27:00,73.5,71.6,29.98,SE,145,3.5,4.5,94,0.00,,---,0.00,VWS V13.01,2013-02-24 06:27:00,
2013-02-24 01:32:00,73.6,71.8,29.98,SSE,155,2.1,2.1,94,0.00,,---,0.00,VWS V13.01,2013-02-24 06:32:00,
2013-02-24 01:37:00,73.6,71.8,29.98,East,86,1.6,3.1,94,0.00,,---,0.00,VWS V13.01,2013-02-24 06:37:00,
2013-02-24 01:42:00,73.6,71.8,29.98,SE,145,1.2,3.1,94,0.00,,---,0.00,VWS V13.01,2013-02-24 06:42:00,
2013-02-24 01:47:00,73.7,72.0,29.98,SE,138,2.7,2.7,94,0.00,,---,0.00,VWS V13.01,2013-02-24 06:47:00,
2013-02-24 01:52:00,73.6,71.9,29.97,SE,139,2.2,3.1,94,0.00,,---,0.00,VWS V13.01,2013-02-24 06:52:00,
2013-02-24 01:57:00,73.7,72.0,29.97,SSE,160,1.5,3.5,94,0.00,,---,0.00,VWS V13.01,2013-02-24 06:57:00,
2013-02-24 02:02:00,73.7,72.0,29.97,SE,143,0.0,0.9,94,0.00,,---,0.00,VWS V13.01,2013-02-24 07:02:00,
2013-02-24 02:07:00,73.7,72.0,29.97,SSW,202,0.9,0.9,94,0.00,,---,0.00,VWS V13.01,2013-02-24 07:07:00,
2013-02-24 02:12:00,73.7,72.0,29.97,South,172,1.6,2.7,94,0.00,,---,0.00,VWS V13.01,2013-02-24 07:12:00,
2013-02-24 02:18:00,73.7,72.0,29.97,SE,139,0.0,0.7,94,0.00,,---,0.00,VWS V13.01,2013-02-24 07:18:00,
2013-02-24 02:23:00,73.5,71.9,29.97,South,177,0.9,2.7,95,0.00,,---,0.00,VWS V13.01,2013-02-24 07:23:00,
2013-02-24 02:28:00,73.4,71.8,29.97,SW,231,2.4,3.3,95,0.00,,---,0.00,VWS V13.01,2013-02-24 07:28:00,
2013-02-24 02:33:00,73.4,71.8,29.97,South,172,0.0,1.4,95,0.00,,---,0.00,VWS V13.01,2013-02-24 07:33:00,
2013-02-24 02:38:00,73.4,71.8,29.97,South,172,0.0,0.0,95,0.00,,---,0.00,VWS V13.01,2013-02-24 07:38:00,
2013-02-24 02:43:00,73.4,71.8,29.97,SE,146,0.0,0.0,95,0.00,,---,0.00,VWS V13.01,2013-02-24 07:43:00,
2013-02-24 02:48:00,73.3,71.7,29.97,SE,146,0.0,0.0,95,0.00,,---,0.00,VWS V13.01,2013-02-24 07:48:00,
2013-02-24 02:53:00,73.4,71.8,29.96,SSE,166,1.1,1.1,95,0.00,,---,0.00,VWS V13.01,2013-02-24 07:53:00,
2013-02-24 02:58:00,73.5,71.9,29.96,SSE,163,0.7,1.4,95,0.00,,---,0.00,VWS V13.01,2013-02-24 07:58:00,
2013-02-24 03:03:00,73.5,72.0,29.96,SE,138,0.0,0.0,95,0.00,,---,0.00,VWS V13.01,2013-02-24 08:03:00,
2013-02-24 03:08:00,73.4,71.9,29.96,SSW,194,0.0,0.0,95,0.00,,---,0.00,VWS V13.01,2013-02-24 08:08:00,
2013-02-24 03:13:00,73.4,71.9,29.96,SSW,194,0.0,0.0,95,0.00,,---,0.00,VWS V13.01,2013-02-24 08:13:00,
2013-02-24 03:18:00,73.5,72.0,29.95,South,176,0.0,0.0,95,0.00,,---,0.00,VWS V13.01,2013-02-24 08:18:00,
2013-02-24 03:23:00,73.4,71.9,29.95,SE,127,0.0,0.4,95,0.00,,---,0.00,VWS V13.01,2013-02-24 08:23:00,
2013-02-24 03:28:00,73.4,71.9,29.96,SE,128,0.0,0.0,95,0.00,,---,0.00,VWS V13.01,2013-02-24 08:28:00,
2013-02-24 03:33:00,73.4,71.9,29.95,ESE,117,0.0,0.0,95,0.00,,---,0.00,VWS V13.01,2013-02-24 08:33:00,
2013-02-24 03:38:00,73.5,72.0,29.95,SE,136,0.6,1.2,95,0.00,,---,0.00,VWS V13.01,2013-02-24 08:38:00,
2013-02-24 03:43:00,73.4,71.9,29.95,SE,135,0.0,0.0,95,0.00,,---,0.00,VWS V13.01,2013-02-24 08:43:00,
2013-02-24 03:48:00,73.3,71.8,29.95,SSE,155,0.0,0.0,95,0.00,,---,0.00,VWS V13.01,2013-02-24 08:48:00,
2013-02-24 03:53:00,73.3,71.8,29.95,SSE,166,0.0,0.0,95,0.00,,---,0.00,VWS V13.01,2013-02-24 08:53:00,
2013-02-24 03:58:00,73.2,71.8,29.95,SSE,166,0.0,0.0,95,0.00,,---,0.00,VWS V13.01,2013-02-24 08:58:00,
2013-02-24 04:03:00,73.2,71.8,29.95,SSE,166,0.0,0.0,95,0.00,,---,0.00,VWS V13.01,2013-02-24 09:03:00,
2013-02-24 04:08:00,73.0,71.6,29.95,SSE,166,0.0,0.0,95,0.00,,---,0.00,VWS V13.01,2013-02-24 09:08:00,
2013-02-24 04:13:00,73.0,71.6,29.95,SSE,166,0.0,0.0,95,0.00,,---,0.00,VWS V13.01,2013-02-24 09:13:00,
2013-02-24 04:18:00,72.6,71.2,29.95,SSE,166,0.0,0.0,95,0.00,,---,0.00,VWS V13.01,2013-02-24 09:18:00,
2013-02-24 04:24:00,72.7,71.2,29.95,SSE,166,0.0,0.0,95,0.00,,---,0.00,VWS V13.01,2013-02-24 09:24:00,
2013-02-24 04:29:00,72.5,71.1,29.95,SSE,166,0.0,0.0,95,0.00,,---,0.00,VWS V13.01,2013-02-24 09:29:00,
2013-02-24 04:34:00,72.5,71.1,29.95,SSE,148,0.0,0.0,95,0.00,,---,0.00,VWS V13.01,2013-02-24 09:34:00,
2013-02-24 04:39:00,72.6,71.2,29.95,East,98,0.0,0.0,95,0.00,,---,0.00,VWS V13.01,2013-02-24 09:39:00,
2013-02-24 04:44:00,72.6,71.2,29.95,ESE,112,0.0,0.0,95,0.00,,---,0.00,VWS V13.01,2013-02-24 09:44:00,
2013-02-24 04:49:00,72.7,71.3,29.95,SE,127,2.4,2.7,95,0.00,,---,0.00,VWS V13.01,2013-02-24 09:49:00,
2013-02-24 04:54:00,72.7,71.3,29.95,ESE,111,0.9,3.5,95,0.00,,---,0.00,VWS V13.01,2013-02-24 09:54:00,
2013-02-24 04:59:00,72.6,71.2,29.95,ESE,115,1.0,2.9,95,0.00,,---,0.00,VWS V13.01,2013-02-24 09:59:00,
2013-02-24 05:04:00,72.7,71.3,29.95,East,91,0.0,2.9,96,0.00,,---,0.00,VWS V13.01,2013-02-24 10:04:00,
2013-02-24 05:09:00,72.8,71.4,29.95,South,173,1.6,3.4,96,0.00,,---,0.00,VWS V13.01,2013-02-24 10:09:00,
2013-02-24 05:14:00,72.8,71.4,29.95,SE,135,0.0,0.0,96,0.00,,---,0.00,VWS V13.01,2013-02-24 10:14:00,
2013-02-24 05:19:00,72.7,71.3,29.96,South,172,0.0,1.5,96,0.00,,---,0.00,VWS V13.01,2013-02-24 10:19:00,
2013-02-24 05:24:00,72.9,71.6,29.96,SE,138,0.0,0.0,96,0.00,,---,0.00,VWS V13.01,2013-02-24 10:24:00,
2013-02-24 05:29:00,72.8,71.5,29.96,SE,143,1.1,1.6,96,0.00,,---,0.00,VWS V13.01,2013-02-24 10:29:00,
2013-02-24 05:34:00,72.8,71.5,29.96,SE,129,0.0,0.0,96,0.00,,---,0.00,VWS V13.01,2013-02-24 10:34:00,
2013-02-24 05:39:00,72.7,71.4,29.96,SE,129,0.0,0.0,96,0.00,,---,0.00,VWS V13.01,2013-02-24 10:39:00,
2013-02-24 05:44:00,72.6,71.3,29.96,SE,141,0.0,0.0,96,0.00,,---,0.00,VWS V13.01,2013-02-24 10:44:00,
2013-02-24 05:49:00,72.5,71.2,29.96,SSE,166,0.0,0.0,96,0.00,,---,0.00,VWS V13.01,2013-02-24 10:49:00,
2013-02-24 05:54:00,72.5,71.2,29.95,SE,136,0.0,0.6,96,0.00,,---,0.00,VWS V13.01,2013-02-24 10:54:00,
2013-02-24 05:59:00,72.4,71.1,29.96,ESE,111,0.0,0.0,96,0.00,,---,0.00,VWS V13.01,2013-02-24 10:59:00,
2013-02-24 06:04:00,72.4,71.1,29.95,ESE,110,2.4,3.9,96,0.00,,---,0.00,VWS V13.01,2013-02-24 11:04:00,
2013-02-24 06:09:00,72.3,71.0,29.96,ESE,107,0.0,0.0,96,0.00,,---,0.00,VWS V13.01,2013-02-24 11:09:00,
2013-02-24 06:14:00,72.4,71.1,29.96,SSE,163,0.8,0.8,96,0.00,,---,0.00,VWS V13.01,2013-02-24 11:14:00,
2013-02-24 06:19:00,72.2,70.9,29.96,ESE,120,0.0,1.3,96,0.00,,---,0.00,VWS V13.01,2013-02-24 11:19:00,
2013-02-24 06:24:00,72.4,71.1,29.97,ESE,120,0.0,0.0,96,0.00,,---,0.00,VWS V13.01,2013-02-24 11:24:00,
2013-02-24 06:29:00,72.3,71.0,29.97,ESE,120,0.0,0.0,96,0.00,,---,0.00,VWS V13.01,2013-02-24 11:29:00,
2013-02-24 06:34:00,72.2,70.9,29.97,ESE,120,0.0,0.0,96,0.00,,---,0.00,VWS V13.01,2013-02-24 11:34:00,
2013-02-24 06:39:00,72.2,70.9,29.97,SE,135,0.0,0.0,96,0.00,,---,0.00,VWS V13.01,2013-02-24 11:39:00,
2013-02-24 06:44:00,72.2,71.0,29.97,SE,135,0.0,0.0,96,0.00,,---,0.00,VWS V13.01,2013-02-24 11:44:00,
2013-02-24 06:49:00,72.1,70.9,29.97,SE,135,0.0,0.0,96,0.00,,---,0.00,VWS V13.01,2013-02-24 11:49:00,
2013-02-24 06:55:00,72.2,71.0,29.97,ESE,118,0.0,0.0,96,0.00,,---,0.00,VWS V13.01,2013-02-24 11:55:00,
2013-02-24 07:00:00,72.1,70.9,29.97,ESE,122,0.0,0.9,96,0.00,,---,0.00,VWS V13.01,2013-02-24 12:00:00,
2013-02-24 07:05:00,72.1,70.9,29.97,SSE,163,0.0,0.0,96,0.00,,---,0.00,VWS V13.01,2013-02-24 12:05:00,
2013-02-24 07:10:00,72.3,71.1,29.97,SSE,153,0.0,1.2,96,0.00,,---,0.00,VWS V13.01,2013-02-24 12:10:00,
2013-02-24 07:15:00,72.4,71.2,29.97,SE,142,4.1,4.2,96,0.00,,---,0.00,VWS V13.01,2013-02-24 12:15:00,
2013-02-24 07:20:00,72.5,71.3,29.98,SSE,158,1.5,1.9,96,0.00,,---,0.00,VWS V13.01,2013-02-24 12:20:00,
2013-02-24 07:25:00,72.5,71.3,29.98,SSW,207,0.0,1.0,96,0.00,,---,0.00,VWS V13.01,2013-02-24 12:25:00,
2013-02-24 07:30:00,72.5,71.3,29.98,SSW,211,1.2,3.1,96,0.00,,---,0.00,VWS V13.01,2013-02-24 12:30:00,
2013-02-24 07:35:00,72.7,71.5,29.98,SSE,160,0.0,2.0,96,0.00,,---,0.00,VWS V13.01,2013-02-24 12:35:00,
2013-02-24 07:40:00,72.9,71.7,29.98,SSE,148,1.7,4.8,96,0.00,,---,0.00,VWS V13.01,2013-02-24 12:40:00,
2013-02-24 07:45:00,72.9,71.8,29.98,SSE,160,1.6,4.2,96,0.00,,---,0.00,VWS V13.01,2013-02-24 12:45:00,
2013-02-24 07:50:00,73.2,72.0,29.98,SSE,158,1.4,3.6,96,0.00,,---,0.00,VWS V13.01,2013-02-24 12:50:00,
2013-02-24 07:55:00,73.4,72.3,29.98,SE,146,2.1,3.2,96,0.00,,---,0.00,VWS V13.01,2013-02-24 12:55:00,
2013-02-24 08:01:00,73.6,72.4,29.98,SSE,149,3.4,4.7,96,0.00,,---,0.00,VWS V13.01,2013-02-24 13:01:00,
2013-02-24 08:06:00,73.6,72.4,29.99,SSW,211,1.5,4.3,96,0.00,,---,0.00,VWS V13.01,2013-02-24 13:06:00,
2013-02-24 08:11:00,73.9,72.7,29.99,South,173,0.9,3.6,96,0.00,,---,0.00,VWS V13.01,2013-02-24 13:11:00,
2013-02-24 08:16:00,73.9,72.7,29.99,WSW,255,4.1,6.2,96,0.00,,---,0.00,VWS V13.01,2013-02-24 13:16:00,
2013-02-24 08:21:00,74.3,73.1,30.00,SE,141,2.3,4.3,96,0.00,,---,0.00,VWS V13.01,2013-02-24 13:21:00,
2013-02-24 08:26:00,74.4,73.1,30.00,South,190,5.0,5.2,96,0.00,,---,0.00,VWS V13.01,2013-02-24 13:26:00,
2013-02-24 08:31:00,74.8,73.4,30.00,SSW,208,3.2,5.7,96,0.00,,---,0.00,VWS V13.01,2013-02-24 13:31:00,
2013-02-24 08:36:00,75.0,73.5,30.00,WSW,242,4.5,7.5,95,0.00,,---,0.00,VWS V13.01,2013-02-24 13:36:00,
2013-02-24 08:41:00,75.0,73.3,30.01,WSW,240,4.8,5.8,95,0.00,,---,0.00,VWS V13.01,2013-02-24 13:41:00,
2013-02-24 08:46:00,75.1,73.2,30.01,South,176,4.2,5.3,94,0.00,,---,0.00,VWS V13.01,2013-02-24 13:46:00,
2013-02-24 08:51:00,75.2,73.3,30.01,WSW,257,3.9,4.9,94,0.00,,---,0.00,VWS V13.01,2013-02-24 13:51:00,
2013-02-24 08:56:00,75.6,73.5,30.01,West,259,1.9,3.7,93,0.00,,---,0.00,VWS V13.01,2013-02-24 13:56:00,
2013-02-24 09:01:00,75.8,73.4,30.01,SW,222,4.6,5.3,92,0.00,,---,0.00,VWS V13.01,2013-02-24 14:01:00,
2013-02-24 09:06:00,75.9,73.2,30.01,SSW,198,4.1,6.1,91,0.00,,---,0.00,VWS V13.01,2013-02-24 14:06:00,
2013-02-24 09:11:00,76.3,73.2,30.01,South,190,3.5,7.1,90,0.00,,---,0.00,VWS V13.01,2013-02-24 14:11:00,
2013-02-24 09:16:00,76.6,73.4,30.01,SW,232,2.7,3.0,90,0.00,,---,0.00,VWS V13.01,2013-02-24 14:16:00,
2013-02-24 09:21:00,76.8,72.6,30.01,SW,232,5.6,7.5,87,0.00,,---,0.00,VWS V13.01,2013-02-24 14:21:00,
2013-02-24 09:26:00,76.9,72.5,30.01,WSW,238,4.6,5.5,86,0.00,,---,0.00,VWS V13.01,2013-02-24 14:26:00,
2013-02-24 09:31:00,77.2,72.4,30.01,WNW,302,1.9,6.1,85,0.00,,---,0.00,VWS V13.01,2013-02-24 14:31:00,
2013-02-24 09:36:00,77.2,72.2,30.01,SW,233,5.7,7.1,84,0.00,,---,0.00,VWS V13.01,2013-02-24 14:36:00,
2013-02-24 09:41:00,77.4,71.9,30.01,SW,219,4.3,5.9,83,0.00,,---,0.00,VWS V13.01,2013-02-24 14:41:00,
2013-02-24 09:46:00,77.9,72.2,30.01,SW,221,4.9,7.3,83,0.00,,---,0.00,VWS V13.01,2013-02-24 14:46:00,
2013-02-24 09:52:00,78.1,72.2,30.01,SSW,204,3.3,3.5,82,0.00,,---,0.00,VWS V13.01,2013-02-24 14:52:00,
2013-02-24 09:57:00,78.7,72.3,30.01,SSW,194,2.4,3.3,81,0.00,,---,0.00,VWS V13.01,2013-02-24 14:57:00,
2013-02-24 10:02:00,79.3,72.7,30.01,South,169,1.6,3.6,80,0.00,,---,0.00,VWS V13.01,2013-02-24 15:02:00,
2013-02-24 10:07:00,79.7,72.3,30.01,South,181,4.0,4.3,78,0.00,,---,0.00,VWS V13.01,2013-02-24 15:07:00,
2013-02-24 10:12:00,79.9,71.7,30.01,South,184,2.3,7.0,76,0.00,,---,0.00,VWS V13.01,2013-02-24 15:12:00,
2013-02-24 10:17:00,79.8,71.1,30.01,SSW,207,4.9,7.3,75,0.00,,---,0.00,VWS V13.01,2013-02-24 15:17:00,
2013-02-24 10:22:00,80.3,71.3,30.02,SW,233,5.9,6.2,74,0.00,,---,0.00,VWS V13.01,2013-02-24 15:22:00,
2013-02-24 10:27:00,80.1,70.7,30.01,WSW,245,2.9,5.8,73,0.00,,---,0.00,VWS V13.01,2013-02-24 15:27:00,
2013-02-24 10:32:00,80.5,71.2,30.01,WSW,239,4.2,4.2,73,0.00,,---,0.00,VWS V13.01,2013-02-24 15:32:00,
2013-02-24 10:37:00,80.8,70.5,30.01,SSW,193,2.1,2.9,71,0.00,,---,0.00,VWS V13.01,2013-02-24 15:37:00,
2013-02-24 10:42:00,81.3,70.4,30.01,SSW,208,2.3,6.3,70,0.00,,---,0.00,VWS V13.01,2013-02-24 15:42:00,
2013-02-24 10:47:00,81.6,69.7,30.01,South,183,3.7,6.5,67,0.00,,---,0.00,VWS V13.01,2013-02-24 15:47:00,
2013-02-24 10:52:00,82.0,70.0,30.01,East,89,0.2,1.1,67,0.00,,---,0.00,VWS V13.01,2013-02-24 15:52:00,
2013-02-24 10:57:00,81.9,68.8,30.01,SSE,163,3.9,3.9,65,0.00,,---,0.00,VWS V13.01,2013-02-24 15:57:00,
2013-02-24 11:02:00,81.9,69.3,30.01,SW,221,5.7,5.8,66,0.00,,---,0.00,VWS V13.01,2013-02-24 16:02:00,
2013-02-24 11:07:00,82.1,68.4,30.01,West,263,4.8,4.8,63,0.00,,---,0.00,VWS V13.01,2013-02-24 16:07:00,
2013-02-24 11:13:00,82.4,69.3,30.00,East,101,2.1,5.2,65,0.00,,---,0.00,VWS V13.01,2013-02-24 16:13:00,
2013-02-24 11:18:00,82.5,68.5,30.00,SW,226,3.9,4.3,63,0.00,,---,0.00,VWS V13.01,2013-02-24 16:18:00,
2013-02-24 11:23:00,82.4,67.9,30.00,SSE,159,1.9,6.5,62,0.00,,---,0.00,VWS V13.01,2013-02-24 16:23:00,
2013-02-24 11:28:00,82.4,68.0,30.00,SW,221,4.7,7.0,62,0.00,,---,0.00,VWS V13.01,2013-02-24 16:28:00,
2013-02-24 11:33:00,82.5,67.4,30.00,WNW,292,5.2,5.5,60,0.00,,---,0.00,VWS V13.01,2013-02-24 16:33:00,
2013-02-24 11:38:00,82.8,67.3,29.99,SE,135,4.7,5.5,60,0.00,,---,0.00,VWS V13.01,2013-02-24 16:38:00,
2013-02-24 11:43:00,83.3,65.5,29.99,SSW,207,4.8,5.2,55,0.00,,---,0.00,VWS V13.01,2013-02-24 16:43:00,
2013-02-24 11:48:00,83.7,67.1,29.99,East,86,1.7,2.4,58,0.00,,---,0.00,VWS V13.01,2013-02-24 16:48:00,
2013-02-24 11:53:00,84.7,72.5,29.99,East,83,3.3,7.2,67,0.00,,---,0.00,VWS V13.01,2013-02-24 16:53:00,
2013-02-24 11:58:00,84.8,72.4,29.99,SE,128,4.8,6.3,66,0.00,,---,0.00,VWS V13.01,2013-02-24 16:58:00,
2013-02-24 12:03:00,84.5,71.6,29.98,East,101,7.8,7.9,65,0.00,,---,0.00,VWS V13.01,2013-02-24 17:03:00,
2013-02-24 12:08:00,83.5,72.1,29.98,SE,135,3.8,3.8,68,0.00,,---,0.00,VWS V13.01,2013-02-24 17:08:00,
2013-02-24 12:13:00,82.9,71.5,29.98,NNE,21,2.1,2.4,68,0.00,,---,0.00,VWS V13.01,2013-02-24 17:13:00,
2013-02-24 12:18:00,82.7,71.9,29.97,NE,35,5.6,5.6,70,0.00,,---,0.00,VWS V13.01,2013-02-24 17:18:00,
2013-02-24 12:23:00,82.4,72.0,29.97,East,89,3.8,4.2,71,0.00,,---,0.00,VWS V13.01,2013-02-24 17:23:00,
2013-02-24 12:28:00,81.9,71.8,29.97,North,7,4.9,5.8,71,0.00,,---,0.00,VWS V13.01,2013-02-24 17:28:00,
2013-02-24 12:33:00,82.3,71.9,29.96,NNE,30,5.2,8.1,71,0.00,,---,0.00,VWS V13.01,2013-02-24 17:33:00,
2013-02-24 12:38:00,82.1,71.0,29.96,North,10,4.2,4.2,69,0.00,,---,0.00,VWS V13.01,2013-02-24 17:38:00,
2013-02-24 12:43:00,82.4,71.2,29.96,ENE,72,2.2,2.2,69,0.00,,---,0.00,VWS V13.01,2013-02-24 17:43:00,
2013-02-24 12:48:00,82.6,71.4,29.95,SE,141,4.5,4.6,69,0.00,,---,0.00,VWS V13.01,2013-02-24 17:48:00,
2013-02-24 12:53:00,82.6,71.6,29.95,ENE,69,4.8,5.3,69,0.00,,---,0.00,VWS V13.01,2013-02-24 17:53:00,
2013-02-24 12:58:00,82.5,71.1,29.95,East,87,6.6,6.7,69,0.00,,---,0.00,VWS V13.01,2013-02-24 17:58:00,
2013-02-24 13:03:00,82.5,71.1,29.95,NE,52,3.1,3.5,68,0.00,,---,0.00,VWS V13.01,2013-02-24 18:03:00,
2013-02-24 13:09:00,82.4,70.7,29.94,ENE,62,4.0,7.0,68,0.00,,---,0.00,VWS V13.01,2013-02-24 18:09:00,
2013-02-24 13:14:00,82.2,70.9,29.94,SE,124,2.1,3.9,69,0.00,,---,0.00,VWS V13.01,2013-02-24 18:14:00,
2013-02-24 13:19:00,82.2,70.6,29.94,ESE,114,3.2,8.3,68,0.00,,---,0.00,VWS V13.01,2013-02-24 18:19:00,
2013-02-24 13:24:00,82.3,70.3,29.94,East,83,5.4,8.2,67,0.00,,---,0.00,VWS V13.01,2013-02-24 18:24:00,
2013-02-24 13:29:00,82.8,70.0,29.94,ENE,62,3.6,5.9,65,0.00,,---,0.00,VWS V13.01,2013-02-24 18:29:00,
2013-02-24 13:34:00,83.6,69.9,29.93,SE,139,2.4,5.5,63,0.00,,---,0.00,VWS V13.01,2013-02-24 18:34:00,
2013-02-24 13:39:00,84.6,69.8,29.93,ENE,73,3.5,4.8,61,0.00,,---,0.00,VWS V13.01,2013-02-24 18:39:00,
2013-02-24 13:44:00,84.9,70.5,29.92,SSE,159,2.6,7.4,62,0.00,,---,0.00,VWS V13.01,2013-02-24 18:44:00,
2013-02-24 13:49:00,84.2,69.5,29.92,SE,134,4.1,11.9,61,0.00,,---,0.00,VWS V13.01,2013-02-24 18:49:00,
2013-02-24 13:54:00,84.6,69.5,29.92,East,84,9.8,9.8,61,0.00,,---,0.00,VWS V13.01,2013-02-24 18:54:00,
2013-02-24 13:59:00,84.6,69.4,29.92,East,79,4.0,8.0,60,0.00,,---,0.00,VWS V13.01,2013-02-24 18:59:00,
2013-02-24 14:04:00,84.4,70.2,29.92,SSE,160,3.0,3.0,62,0.00,,---,0.00,VWS V13.01,2013-02-24 19:04:00,
2013-02-24 14:09:00,83.7,67.5,29.92,East,100,4.6,8.6,58,0.00,,---,0.00,VWS V13.01,2013-02-24 19:09:00,
2013-02-24 14:14:00,83.8,68.2,29.92,ENE,75,6.2,7.0,59,0.00,,---,0.00,VWS V13.01,2013-02-24 19:14:00,
2013-02-24 14:19:00,83.8,69.0,29.92,ESE,103,4.3,4.3,61,0.00,,---,0.00,VWS V13.01,2013-02-24 19:19:00,
2013-02-24 14:24:00,83.1,68.3,29.91,East,96,6.0,8.7,61,0.00,,---,0.00,VWS V13.01,2013-02-24 19:24:00,
2013-02-24 14:29:00,83.3,66.8,29.91,SSE,160,2.5,6.8,58,0.00,,---,0.00,VWS V13.01,2013-02-24 19:29:00,
2013-02-24 14:34:00,83.5,68.6,29.91,SE,146,4.0,8.5,61,0.00,,---,0.00,VWS V13.01,2013-02-24 19:34:00,
2013-02-24 14:39:00,83.5,67.6,29.91,East,82,3.5,3.5,59,0.00,,---,0.00,VWS V13.01,2013-02-24 19:39:00,
2013-02-24 14:44:00,83.2,68.8,29.91,ESE,122,9.1,10.3,62,0.00,,---,0.00,VWS V13.01,2013-02-24 19:44:00,
2013-02-24 14:49:00,83.1,69.3,29.91,ESE,112,7.1,7.1,63,0.00,,---,0.00,VWS V13.01,2013-02-24 19:49:00,
2013-02-24 14:54:00,83.4,70.0,29.91,East,86,3.5,4.8,64,0.00,,---,0.00,VWS V13.01,2013-02-24 19:54:00,
2013-02-24 14:59:00,82.7,69.7,29.91,SE,145,6.5,10.3,65,0.00,,---,0.00,VWS V13.01,2013-02-24 19:59:00,
2013-02-24 15:04:00,82.8,70.1,29.91,ESE,121,4.3,7.0,66,0.00,,---,0.00,VWS V13.01,2013-02-24 20:04:00,
2013-02-24 15:09:00,83.1,70.1,29.91,ESE,117,10.4,10.4,65,0.00,,---,0.00,VWS V13.01,2013-02-24 20:09:00,
2013-02-24 15:15:00,82.8,70.2,29.91,SE,128,7.5,8.5,66,0.00,,---,0.00,VWS V13.01,2013-02-24 20:15:00,
2013-02-24 15:20:00,82.8,69.6,29.90,SSE,148,4.5,10.6,64,0.00,,---,0.00,VWS V13.01,2013-02-24 20:20:00,
2013-02-24 15:25:00,82.6,69.5,29.90,ESE,121,12.2,12.2,65,0.00,,---,0.00,VWS V13.01,2013-02-24 20:25:00,
2013-02-24 15:30:00,82.9,70.7,29.90,SE,131,5.4,11.6,67,0.00,,---,0.00,VWS V13.01,2013-02-24 20:30:00,
2013-02-24 15:35:00,83.4,70.7,29.90,SE,131,8.8,11.6,66,0.00,,---,0.00,VWS V13.01,2013-02-24 20:35:00,
2013-02-24 15:40:00,82.6,70.0,29.90,ESE,120,5.0,12.7,66,0.00,,---,0.00,VWS V13.01,2013-02-24 20:40:00,
2013-02-24 15:45:00,82.1,70.4,29.90,East,84,3.7,11.2,68,0.00,,---,0.00,VWS V13.01,2013-02-24 20:45:00,
2013-02-24 15:50:00,82.0,70.4,29.90,ESE,122,4.8,8.9,68,0.00,,---,0.00,VWS V13.01,2013-02-24 20:50:00,
2013-02-24 15:55:00,82.1,70.7,29.90,SE,134,7.8,11.8,68,0.00,,---,0.00,VWS V13.01,2013-02-24 20:55:00,
2013-02-24 16:00:00,82.3,70.8,29.91,SE,125,4.5,11.2,68,0.00,,---,0.00,VWS V13.01,2013-02-24 21:00:00,
2013-02-24 16:05:00,82.1,70.4,29.91,SE,141,5.8,8.5,68,0.00,,---,0.00,VWS V13.01,2013-02-24 21:05:00,
2013-02-24 16:10:00,82.0,70.8,29.91,SE,124,6.3,10.4,69,0.00,,---,0.00,VWS V13.01,2013-02-24 21:10:00,
2013-02-24 16:15:00,81.8,70.3,29.91,East,101,4.1,4.1,68,0.00,,---,0.00,VWS V13.01,2013-02-24 21:15:00,
2013-02-24 16:20:00,81.6,70.8,29.91,SE,132,8.7,8.7,70,0.00,,---,0.00,VWS V13.01,2013-02-24 21:20:00,
2013-02-24 16:25:00,81.3,70.0,29.91,East,79,7.5,10.6,69,0.00,,---,0.00,VWS V13.01,2013-02-24 21:25:00,
2013-02-24 16:30:00,81.0,70.1,29.91,East,79,2.9,3.0,69,0.00,,---,0.00,VWS V13.01,2013-02-24 21:30:00,
2013-02-24 16:35:00,81.2,69.9,29.91,SE,132,2.9,2.9,68,0.00,,---,0.00,VWS V13.01,2013-02-24 21:35:00,
2013-02-24 16:40:00,81.4,70.1,29.91,ESE,121,8.6,10.9,69,0.00,,---,0.00,VWS V13.01,2013-02-24 21:40:00,
2013-02-24 16:45:00,81.2,69.9,29.91,East,93,5.1,7.9,69,0.00,,---,0.00,VWS V13.01,2013-02-24 21:45:00,
2013-02-24 16:50:00,81.3,70.7,29.91,East,93,1.7,4.2,70,0.00,,---,0.00,VWS V13.01,2013-02-24 21:50:00,
2013-02-24 16:55:00,81.3,70.6,29.91,SE,146,6.5,6.5,70,0.00,,---,0.00,VWS V13.01,2013-02-24 21:55:00,
2013-02-24 17:00:00,81.2,70.7,29.91,East,98,2.8,3.2,70,0.00,,---,0.00,VWS V13.01,2013-02-24 22:00:00,
2013-02-24 17:05:00,81.3,70.5,29.91,ENE,70,7.4,7.4,70,0.00,,---,0.00,VWS V13.01,2013-02-24 22:05:00,
2013-02-24 17:10:00,80.6,70.2,29.91,East,86,7.6,9.4,71,0.00,,---,0.00,VWS V13.01,2013-02-24 22:10:00,
2013-02-24 17:15:00,80.5,70.4,29.91,East,83,3.6,6.0,72,0.00,,---,0.00,VWS V13.01,2013-02-24 22:15:00,
2013-02-24 17:20:00,80.4,70.1,29.91,ENE,77,5.9,11.7,71,0.00,,---,0.00,VWS V13.01,2013-02-24 22:20:00,
2013-02-24 17:25:00,80.4,70.6,29.92,SE,134,8.6,10.7,72,0.00,,---,0.00,VWS V13.01,2013-02-24 22:25:00,
2013-02-24 17:31:00,80.2,70.4,29.92,East,89,4.3,9.2,72,0.00,,---,0.00,VWS V13.01,2013-02-24 22:31:00,
2013-02-24 17:36:00,80.0,70.7,29.92,East,89,6.2,7.4,73,0.00,,---,0.00,VWS V13.01,2013-02-24 22:36:00,
2013-02-24 17:41:00,79.8,71.1,29.92,East,96,8.5,11.4,75,0.00,,---,0.00,VWS V13.01,2013-02-24 22:41:00,
2013-02-24 17:46:00,79.7,71.3,29.92,ESE,103,3.3,6.9,76,0.00,,---,0.00,VWS V13.01,2013-02-24 22:46:00,
2013-02-24 17:51:00,79.4,71.5,29.92,ESE,108,5.7,6.7,77,0.00,,---,0.00,VWS V13.01,2013-02-24 22:51:00,
2013-02-24 17:56:00,78.9,71.1,29.92,East,94,3.5,8.4,77,0.00,,---,0.00,VWS V13.01,2013-02-24 22:56:00,
2013-02-24 18:01:00,78.9,71.1,29.92,SE,134,3.5,3.7,77,0.00,,---,0.00,VWS V13.01,2013-02-24 23:01:00,
2013-02-24 18:06:00,78.9,71.1,29.92,SE,146,2.0,7.3,77,0.00,,---,0.00,VWS V13.01,2013-02-24 23:06:00,
2013-02-24 18:11:00,78.9,71.5,29.92,SE,124,3.5,7.6,78,0.00,,---,0.00,VWS V13.01,2013-02-24 23:11:00,
2013-02-24 18:16:00,78.9,71.8,29.92,ESE,114,3.0,4.9,79,0.00,,---,0.00,VWS V13.01,2013-02-24 23:16:00,
2013-02-24 18:21:00,78.8,71.9,29.92,East,93,1.1,3.5,80,0.00,,---,0.00,VWS V13.01,2013-02-24 23:21:00,
2013-02-24 18:26:00,78.5,71.7,29.92,East,83,2.2,6.5,80,0.00,,---,0.00,VWS V13.01,2013-02-24 23:26:00,
2013-02-24 18:31:00,78.5,71.5,29.92,SE,132,4.9,4.9,79,0.00,,---,0.00,VWS V13.01,2013-02-24 23:31:00,
2013-02-24 18:36:00,78.2,71.2,29.92,ESE,103,3.9,5.3,79,0.00,,---,0.00,VWS V13.01,2013-02-24 23:36:00,
2013-02-24 18:41:00,78.3,71.2,29.92,SE,142,0.6,3.7,79,0.00,,---,0.00,VWS V13.01,2013-02-24 23:41:00,
2013-02-24 18:46:00,78.3,70.9,29.92,ESE,121,1.9,1.9,78,0.00,,---,0.00,VWS V13.01,2013-02-24 23:46:00,
2013-02-24 18:51:00,78.4,70.9,29.92,ESE,111,3.7,4.0,78,0.00,,---,0.00,VWS V13.01,2013-02-24 23:51:00,
2013-02-24 18:56:00,78.2,70.9,29.92,East,83,3.5,3.9,78,0.00,,---,0.00,VWS V13.01,2013-02-24 23:56:00,
2013-02-24 19:01:00,78.4,71.2,29.92,East,86,3.0,4.3,78,0.00,,---,0.00,VWS V13.01,2013-02-25 00:01:00,
2013-02-24 19:06:00,78.3,71.2,29.92,East,91,0.0,0.3,79,0.00,,---,0.00,VWS V13.01,2013-02-25 00:06:00,
2013-02-24 19:11:00,78.0,71.3,29.93,East,93,1.4,4.1,80,0.00,,---,0.00,VWS V13.01,2013-02-25 00:11:00,
2013-02-24 19:16:00,78.0,71.6,29.92,SE,128,1.9,3.5,81,0.00,,---,0.00,VWS V13.01,2013-02-25 00:16:00,
2013-02-24 19:21:00,77.9,71.8,29.93,East,101,3.4,3.5,82,0.00,,---,0.00,VWS V13.01,2013-02-25 00:21:00,
2013-02-24 19:26:00,78.0,72.2,29.93,NE,53,3.2,3.5,82,0.00,,---,0.00,VWS V13.01,2013-02-25 00:26:00,
2013-02-24 19:31:00,77.7,72.2,29.93,ENE,77,1.6,2.2,83,0.00,,---,0.00,VWS V13.01,2013-02-25 00:31:00,
2013-02-24 19:36:00,77.4,72.1,29.93,SE,139,2.1,2.7,84,0.00,,---,0.00,VWS V13.01,2013-02-25 00:36:00,
2013-02-24 19:41:00,77.2,72.0,29.93,SE,141,2.6,3.0,84,0.00,,---,0.00,VWS V13.01,2013-02-25 00:41:00,
2013-02-24 19:46:00,77.0,71.8,29.93,SE,131,0.0,0.8,84,0.00,,---,0.00,VWS V13.01,2013-02-25 00:46:00,
2013-02-24 19:52:00,77.1,72.0,29.93,ESE,104,0.0,0.6,84,0.00,,---,0.00,VWS V13.01,2013-02-25 00:52:00,
2013-02-24 19:57:00,76.9,71.7,29.93,ESE,118,0.0,2.3,84,0.00,,---,0.00,VWS V13.01,2013-02-25 00:57:00,
2013-02-24 20:02:00,76.8,71.6,29.94,SSE,156,1.8,3.4,84,0.00,,---,0.00,VWS V13.01,2013-02-25 01:02:00,
2013-02-24 20:07:00,76.9,71.6,29.94,SE,124,1.5,2.5,84,0.00,,---,0.00,VWS V13.01,2013-02-25 01:07:00,
2013-02-24 20:12:00,76.9,71.5,29.94,ESE,118,2.2,2.7,83,0.00,,---,0.00,VWS V13.01,2013-02-25 01:12:00,
2013-02-24 20:17:00,76.8,71.3,29.94,ESE,103,1.1,2.3,83,0.00,,---,0.00,VWS V13.01,2013-02-25 01:17:00,
2013-02-24 20:22:00,76.7,71.2,29.94,East,90,2.2,2.4,83,0.00,,---,0.00,VWS V13.01,2013-02-25 01:22:00,
2013-02-24 20:27:00,76.7,71.0,29.94,SE,129,0.0,1.6,83,0.00,,---,0.00,VWS V13.01,2013-02-25 01:27:00,
2013-02-24 20:32:00,76.4,70.7,29.94,East,96,0.0,1.0,82,0.00,,---,0.00,VWS V13.01,2013-02-25 01:32:00,
2013-02-24 20:37:00,76.4,70.6,29.94,ESE,112,1.0,1.0,82,0.00,,---,0.00,VWS V13.01,2013-02-25 01:37:00,
2013-02-24 20:42:00,76.3,70.4,29.95,SSE,149,2.1,2.6,82,0.00,,---,0.00,VWS V13.01,2013-02-25 01:42:00,
2013-02-24 20:47:00,76.3,70.2,29.95,South,173,3.1,4.3,82,0.00,,---,0.00,VWS V13.01,2013-02-25 01:47:00,
2013-02-24 20:52:00,76.4,70.1,29.95,SE,143,3.3,3.4,81,0.00,,---,0.00,VWS V13.01,2013-02-25 01:52:00,
2013-02-24 20:57:00,76.4,69.8,29.95,East,84,1.4,4.2,80,0.00,,---,0.00,VWS V13.01,2013-02-25 01:57:00,
2013-02-24 21:02:00,76.4,69.8,29.95,East,98,1.5,1.6,80,0.00,,---,0.00,VWS V13.01,2013-02-25 02:02:00,
2013-02-24 21:07:00,76.6,69.9,29.95,SE,136,2.1,2.7,80,0.00,,---,0.00,VWS V13.01,2013-02-25 02:07:00,
2013-02-24 21:12:00,76.4,69.6,29.95,SE,146,1.9,2.3,80,0.00,,---,0.00,VWS V13.01,2013-02-25 02:12:00,
2013-02-24 21:17:00,76.7,69.9,29.95,SSE,156,3.4,3.4,80,0.00,,---,0.00,VWS V13.01,2013-02-25 02:17:00,
2013-02-24 21:22:00,76.7,69.9,29.95,SSE,156,1.9,3.0,80,0.00,,---,0.00,VWS V13.01,2013-02-25 02:22:00,
2013-02-24 21:27:00,76.7,69.9,29.95,South,172,1.9,2.7,80,0.00,,---,0.00,VWS V13.01,2013-02-25 02:27:00,
2013-02-24 21:32:00,76.7,70.0,29.96,South,184,2.3,2.5,80,0.00,,---,0.00,VWS V13.01,2013-02-25 02:32:00,
2013-02-24 21:37:00,76.6,69.9,29.96,South,169,0.8,0.8,80,0.00,,---,0.00,VWS V13.01,2013-02-25 02:37:00,
2013-02-24 21:42:00,76.7,70.1,29.95,SE,142,2.1,2.4,80,0.00,,---,0.00,VWS V13.01,2013-02-25 02:42:00,
2013-02-24 21:47:00,76.4,69.9,29.96,East,98,0.0,0.0,80,0.00,,---,0.00,VWS V13.01,2013-02-25 02:47:00,
2013-02-24 21:52:00,76.2,69.8,29.95,ESE,115,0.0,0.6,81,0.00,,---,0.00,VWS V13.01,2013-02-25 02:52:00,
2013-02-24 21:57:00,76.2,69.9,29.95,SE,132,0.0,0.0,81,0.00,,---,0.00,VWS V13.01,2013-02-25 02:57:00,
2013-02-24 22:03:00,75.9,69.7,29.95,SE,132,0.0,0.0,81,0.00,,---,0.00,VWS V13.01,2013-02-25 03:03:00,
2013-02-24 22:08:00,76.0,69.8,29.95,SE,132,0.0,0.0,81,0.00,,---,0.00,VWS V13.01,2013-02-25 03:08:00,
2013-02-24 22:13:00,75.6,69.7,29.96,SE,132,0.0,0.0,82,0.00,,---,0.00,VWS V13.01,2013-02-25 03:13:00,
2013-02-24 22:18:00,75.5,69.7,29.96,SE,132,0.0,0.0,82,0.00,,---,0.00,VWS V13.01,2013-02-25 03:18:00,
2013-02-24 22:23:00,75.1,69.4,29.96,SE,132,0.0,0.0,82,0.00,,---,0.00,VWS V13.01,2013-02-25 03:23:00,
2013-02-24 22:28:00,75.0,69.5,29.95,SE,132,0.0,0.0,83,0.00,,---,0.00,VWS V13.01,2013-02-25 03:28:00,
2013-02-24 22:33:00,75.0,69.6,29.95,SE,132,0.0,0.0,83,0.00,,---,0.00,VWS V13.01,2013-02-25 03:33:00,
2013-02-24 22:38:00,74.6,69.3,29.95,SE,132,0.0,0.0,84,0.00,,---,0.00,VWS V13.01,2013-02-25 03:38:00,
2013-02-24 22:43:00,74.3,69.2,29.95,SE,132,0.0,0.0,84,0.00,,---,0.00,VWS V13.01,2013-02-25 03:43:00,
2013-02-24 22:48:00,74.2,69.2,29.95,SE,132,0.0,0.0,84,0.00,,---,0.00,VWS V13.01,2013-02-25 03:48:00,
2013-02-24 22:53:00,74.1,69.2,29.95,SE,132,0.0,0.0,85,0.00,,---,0.00,VWS V13.01,2013-02-25 03:53:00,
2013-02-24 22:58:00,74.0,69.2,29.95,SE,132,0.0,0.0,85,0.00,,---,0.00,VWS V13.01,2013-02-25 03:58:00,
2013-02-24 23:03:00,74.1,69.4,29.95,SE,132,0.0,0.0,85,0.00,,---,0.00,VWS V13.01,2013-02-25 04:03:00,
2013-02-24 23:08:00,73.9,69.3,29.95,SE,132,0.0,0.0,86,0.00,,---,0.00,VWS V13.01,2013-02-25 04:08:00,
2013-02-24 23:13:00,73.8,69.3,29.95,SE,132,0.0,0.0,86,0.00,,---,0.00,VWS V13.01,2013-02-25 04:13:00,
2013-02-24 23:18:00,73.9,69.4,29.94,SE,132,0.0,0.0,86,0.00,,---,0.00,VWS V13.01,2013-02-25 04:18:00,
2013-02-24 23:23:00,73.8,69.3,29.94,SE,132,0.0,0.0,86,0.00,,---,0.00,VWS V13.01,2013-02-25 04:23:00,
2013-02-24 23:28:00,73.8,69.3,29.94,SE,132,0.0,0.0,86,0.00,,---,0.00,VWS V13.01,2013-02-25 04:28:00,
2013-02-24 23:33:00,73.8,69.4,29.94,SE,132,0.0,0.0,86,0.00,,---,0.00,VWS V13.01,2013-02-25 04:33:00,
2013-02-24 23:38:00,73.7,69.3,29.93,SE,132,0.0,0.0,86,0.00,,---,0.00,VWS V13.01,2013-02-25 04:38:00,
2013-02-24 23:44:00,73.4,69.1,29.94,SE,132,0.0,0.0,86,0.00,,---,0.00,VWS V13.01,2013-02-25 04:44:00,
2013-02-24 23:49:00,73.4,69.2,29.94,SE,132,0.0,0.0,87,0.00,,---,0.00,VWS V13.01,2013-02-25 04:49:00,
2013-02-24 23:54:00,73.3,69.1,29.93,SE,132,0.0,0.0,87,0.00,,---,0.00,VWS V13.01,2013-02-25 04:54:00,